Sydney Regional Office, Australia
Current Conditions -  °F | °C
As of 12:00 PM on Saturday 20 Dec 2014 (Local Time) from YSSY Reporting Station
Broken Clouds Broken Clouds  
Wind Chill: 72°   Ceiling: 4000
Heat Index: 72°   Visibility: 6mi
Dew Point: 50°   Wind: 12mph
Humidity: 46%   Direction: 130°SE
Pressure: 30.03"   Gusts: NA
Location:  33.85°S, 151.2°E
Report Text: YSSY 200100Z 13010KT 9999 BKN040 22/10 Q1017 NOSIG
Loading
Personal Weather Stations






























Interactive Weather Map New forecast layout! Learn more

10-Day Weather Forecast

Advertisements
Track Severe Weather on mobile